sensor_id;sensor_type;location;lat;lon;timestamp;temperature;humidity
18339;DHT22;9295;44.484;11.240;2023-10-19T00:02:15;11.80;99.90
18339;DHT22;9295;44.484;11.240;2023-10-19T00:04:46;11.80;99.90
18339;DHT22;9295;44.484;11.240;2023-10-19T00:07:16;11.70;99.90
18339;DHT22;9295;44.484;11.240;2023-10-19T00:09:45;11.60;99.90
18339;DHT22;9295;44.484;11.240;2023-10-19T00:12:17;11.70;99.90
18339;DHT22;9295;44.484;11.240;2023-10-19T00:14:49;11.70;99.90
18339;DHT22;9295;44.484;11.240;2023-10-19T00:17:16;11.70;99.90
18339;DHT22;9295;44.484;11.240;2023-10-19T00:19:48;11.80;99.90
18339;DHT22;9295;44.484;11.240;2023-10-19T00:22:25;11.80;99.90
18339;DHT22;9295;44.484;11.240;2023-10-19T00:24:58;11.80;99.90
18339;DHT22;9295;44.484;11.240;2023-10-19T00:27:27;11.80;99.90
18339;DHT22;9295;44.484;11.240;2023-10-19T00:29:56;11.70;99.90
18339;DHT22;9295;44.484;11.240;2023-10-19T00:32:33;11.80;99.90
18339;DHT22;9295;44.484;11.240;2023-10-19T00:35:06;11.80;99.90
18339;DHT22;9295;44.484;11.240;2023-10-19T00:37:56;11.80;99.90
18339;DHT22;9295;44.484;11.240;2023-10-19T00:40:50;11.80;99.90
18339;DHT22;9295;44.484;11.240;2023-10-19T00:43:28;11.70;99.90
18339;DHT22;9295;44.484;11.240;2023-10-19T00:46:00;11.70;99.90
18339;DHT22;9295;44.484;11.240;2023-10-19T00:48:35;11.70;99.90
18339;DHT22;9295;44.484;11.240;2023-10-19T00:51:07;11.70;99.90
18339;DHT22;9295;44.484;11.240;2023-10-19T00:53:37;11.70;99.90
18339;DHT22;9295;44.484;11.240;2023-10-19T00:56:09;11.70;99.90
18339;DHT22;9295;44.484;11.240;2023-10-19T00:58:39;11.70;99.90
18339;DHT22;9295;44.484;11.240;2023-10-19T01:01:09;11.70;99.90
18339;DHT22;9295;44.484;11.240;2023-10-19T01:03:37;11.60;99.90
18339;DHT22;9295;44.484;11.240;2023-10-19T01:06:06;11.60;99.90
18339;DHT22;9295;44.484;11.240;2023-10-19T01:08:40;11.60;99.90
18339;DHT22;9295;44.484;11.240;2023-10-19T01:11:12;11.60;99.90
18339;DHT22;9295;44.484;11.240;2023-10-19T01:13:44;11.60;99.90
18339;DHT22;9295;44.484;11.240;2023-10-19T01:16:14;11.60;99.90
18339;DHT22;9295;44.484;11.240;2023-10-19T01:18:49;11.60;99.90
18339;DHT22;9295;44.484;11.240;2023-10-19T01:21:22;11.60;99.90
18339;DHT22;9295;44.484;11.240;2023-10-19T01:23:56;11.60;99.90
18339;DHT22;9295;44.484;11.240;2023-10-19T01:26:25;11.60;99.90
18339;DHT22;9295;44.484;11.240;2023-10-19T01:28:54;11.60;99.90
18339;DHT22;9295;44.484;11.240;2023-10-19T01:31:28;11.50;99.90
18339;DHT22;9295;44.484;11.240;2023-10-19T01:34:06;11.50;99.90
18339;DHT22;9295;44.484;11.240;2023-10-19T01:36:37;11.60;99.90
18339;DHT22;9295;44.484;11.240;2023-10-19T01:39:11;11.60;99.90
18339;DHT22;9295;44.484;11.240;2023-10-19T01:41:39;11.70;99.90
18339;DHT22;9295;44.484;11.240;2023-10-19T01:44:08;11.70;99.90
18339;DHT22;9295;44.484;11.240;2023-10-19T01:46:41;11.70;99.90
18339;DHT22;9295;44.484;11.240;2023-10-19T01:49:11;11.70;99.90
18339;DHT22;9295;44.484;11.240;2023-10-19T01:51:39;11.60;99.90
18339;DHT22;9295;44.484;11.240;2023-10-19T01:54:11;11.60;99.90
18339;DHT22;9295;44.484;11.240;2023-10-19T01:56:41;11.60;99.90
18339;DHT22;9295;44.484;11.240;2023-10-19T01:59:10;11.60;99.90
18339;DHT22;9295;44.484;11.240;2023-10-19T02:01:41;11.60;99.90
18339;DHT22;9295;44.484;11.240;2023-10-19T02:04:12;11.70;99.90
18339;DHT22;9295;44.484;11.240;2023-10-19T02:06:41;11.70;99.90
18339;DHT22;9295;44.484;11.240;2023-10-19T02:09:11;11.70;99.90
18339;DHT22;9295;44.484;11.240;2023-10-19T02:11:50;11.70;99.90
18339;DHT22;9295;44.484;11.240;2023-10-19T02:14:20;11.70;99.90
18339;DHT22;9295;44.484;11.240;2023-10-19T02:16:50;11.70;99.90
18339;DHT22;9295;44.484;11.240;2023-10-19T02:19:20;11.70;99.90
18339;DHT22;9295;44.484;11.240;2023-10-19T02:21:51;11.60;99.90
18339;DHT22;9295;44.484;11.240;2023-10-19T02:24:21;11.40;99.90
18339;DHT22;9295;44.484;11.240;2023-10-19T02:26:50;11.40;99.90
18339;DHT22;9295;44.484;11.240;2023-10-19T02:29:19;11.30;99.90
18339;DHT22;9295;44.484;11.240;2023-10-19T02:31:48;11.20;99.90
18339;DHT22;9295;44.484;11.240;2023-10-19T02:34:18;11.10;99.90
18339;DHT22;9295;44.484;11.240;2023-10-19T02:36:47;11.10;99.90
18339;DHT22;9295;44.484;11.240;2023-10-19T02:39:15;11.10;99.90
18339;DHT22;9295;44.484;11.240;2023-10-19T02:41:47;11.10;99.90
18339;DHT22;9295;44.484;11.240;2023-10-19T02:44:17;11.10;99.90
18339;DHT22;9295;44.484;11.240;2023-10-19T02:46:50;11.20;99.90
18339;DHT22;9295;44.484;11.240;2023-10-19T02:49:21;11.30;99.90
18339;DHT22;9295;44.484;11.240;2023-10-19T02:51:51;11.40;99.90
18339;DHT22;9295;44.484;11.240;2023-10-19T02:54:21;11.40;99.90
18339;DHT22;9295;44.484;11.240;2023-10-19T02:56:52;11.40;99.90
18339;DHT22;9295;44.484;11.240;2023-10-19T02:59:25;11.30;99.90
18339;DHT22;9295;44.484;11.240;2023-10-19T03:01:54;11.20;99.90
18339;DHT22;9295;44.484;11.240;2023-10-19T03:04:29;11.20;99.90
18339;DHT22;9295;44.484;11.240;2023-10-19T03:06:58;11.30;99.90
18339;DHT22;9295;44.484;11.240;2023-10-19T03:09:26;11.40;99.90
18339;DHT22;9295;44.484;11.240;2023-10-19T03:11:58;11.40;99.90
18339;DHT22;9295;44.484;11.240;2023-10-19T03:14:27;11.50;99.90
18339;DHT22;9295;44.484;11.240;2023-10-19T03:16:57;11.50;99.90
18339;DHT22;9295;44.484;11.240;2023-10-19T03:19:27;11.50;99.90
18339;DHT22;9295;44.484;11.240;2023-10-19T03:21:56;11.50;99.90
18339;DHT22;9295;44.484;11.240;2023-10-19T03:24:27;11.50;99.90
18339;DHT22;9295;44.484;11.240;2023-10-19T03:27:05;11.50;99.90
18339;DHT22;9295;44.484;11.240;2023-10-19T03:29:41;11.50;99.90
18339;DHT22;9295;44.484;11.240;2023-10-19T03:32:13;11.50;99.90
18339;DHT22;9295;44.484;11.240;2023-10-19T03:34:44;11.50;99.90
18339;DHT22;9295;44.484;11.240;2023-10-19T03:37:17;11.60;99.90
18339;DHT22;9295;44.484;11.240;2023-10-19T03:39:48;11.60;99.90
18339;DHT22;9295;44.484;11.240;2023-10-19T03:42:18;11.60;99.90
18339;DHT22;9295;44.484;11.240;2023-10-19T03:44:48;11.60;99.90
18339;DHT22;9295;44.484;11.240;2023-10-19T03:47:21;11.50;99.90
18339;DHT22;9295;44.484;11.240;2023-10-19T03:49:55;11.50;99.90
18339;DHT22;9295;44.484;11.240;2023-10-19T03:52:28;11.50;99.90
18339;DHT22;9295;44.484;11.240;2023-10-19T03:54:58;11.60;99.90
18339;DHT22;9295;44.484;11.240;2023-10-19T03:57:29;11.60;99.90
18339;DHT22;9295;44.484;11.240;2023-10-19T03:59:57;11.50;99.90
18339;DHT22;9295;44.484;11.240;2023-10-19T04:02:27;11.60;99.90
18339;DHT22;9295;44.484;11.240;2023-10-19T04:04:57;11.60;99.90
18339;DHT22;9295;44.484;11.240;2023-10-19T04:07:25;11.60;99.90
18339;DHT22;9295;44.484;11.240;2023-10-19T04:09:58;11.50;99.90
18339;DHT22;9295;44.484;11.240;2023-10-19T04:12:39;11.50;99.90
18339;DHT22;9295;44.484;11.240;2023-10-19T04:15:10;11.50;99.90
18339;DHT22;9295;44.484;11.240;2023-10-19T04:17:43;11.50;99.90
18339;DHT22;9295;44.484;11.240;2023-10-19T04:20:14;11.50;99.90
18339;DHT22;9295;44.484;11.240;2023-10-19T04:22:56;11.50;99.90
18339;DHT22;9295;44.484;11.240;2023-10-19T04:25:33;11.50;99.90
18339;DHT22;9295;44.484;11.240;2023-10-19T04:28:03;11.50;99.90
18339;DHT22;9295;44.484;11.240;2023-10-19T04:30:32;11.50;99.90
18339;DHT22;9295;44.484;11.240;2023-10-19T04:33:04;11.60;99.90
18339;DHT22;9295;44.484;11.240;2023-10-19T04:35:36;11.60;99.90
18339;DHT22;9295;44.484;11.240;2023-10-19T04:38:09;11.60;99.90
18339;DHT22;9295;44.484;11.240;2023-10-19T04:40:37;11.60;99.90
18339;DHT22;9295;44.484;11.240;2023-10-19T04:43:07;11.60;99.90
18339;DHT22;9295;44.484;11.240;2023-10-19T04:45:39;11.60;99.90
18339;DHT22;9295;44.484;11.240;2023-10-19T04:48:08;11.60;99.90
18339;DHT22;9295;44.484;11.240;2023-10-19T04:50:37;11.60;99.90
18339;DHT22;9295;44.484;11.240;2023-10-19T04:53:07;11.60;99.90
18339;DHT22;9295;44.484;11.240;2023-10-19T04:55:35;11.60;99.90
18339;DHT22;9295;44.484;11.240;2023-10-19T04:58:05;11.60;99.90
18339;DHT22;9295;44.484;11.240;2023-10-19T05:00:35;11.60;99.90
18339;DHT22;9295;44.484;11.240;2023-10-19T05:03:03;11.60;99.90
18339;DHT22;9295;44.484;11.240;2023-10-19T05:05:33;11.60;99.90
18339;DHT22;9295;44.484;11.240;2023-10-19T05:08:03;11.60;99.90
18339;DHT22;9295;44.484;11.240;2023-10-19T05:10:32;11.60;99.90
18339;DHT22;9295;44.484;11.240;2023-10-19T05:13:01;11.60;99.90
18339;DHT22;9295;44.484;11.240;2023-10-19T05:15:30;11.60;99.90
18339;DHT22;9295;44.484;11.240;2023-10-19T05:18:03;11.60;99.90
18339;DHT22;9295;44.484;11.240;2023-10-19T05:20:33;11.60;99.90
18339;DHT22;9295;44.484;11.240;2023-10-19T05:23:06;11.60;99.90
18339;DHT22;9295;44.484;11.240;2023-10-19T05:25:35;11.70;99.90
18339;DHT22;9295;44.484;11.240;2023-10-19T05:28:05;11.70;99.90
18339;DHT22;9295;44.484;11.240;2023-10-19T05:30:35;11.60;99.90
18339;DHT22;9295;44.484;11.240;2023-10-19T05:33:05;11.70;99.90
18339;DHT22;9295;44.484;11.240;2023-10-19T05:35:34;11.60;99.90
18339;DHT22;9295;44.484;11.240;2023-10-19T05:38:07;11.70;99.90
18339;DHT22;9295;44.484;11.240;2023-10-19T05:40:36;11.70;99.90
18339;DHT22;9295;44.484;11.240;2023-10-19T05:43:06;11.70;99.90
18339;DHT22;9295;44.484;11.240;2023-10-19T05:45:34;11.70;99.90
18339;DHT22;9295;44.484;11.240;2023-10-19T05:48:09;11.70;99.90
18339;DHT22;9295;44.484;11.240;2023-10-19T05:50:38;11.70;99.90
18339;DHT22;9295;44.484;11.240;2023-10-19T05:53:07;11.70;99.90
18339;DHT22;9295;44.484;11.240;2023-10-19T05:55:35;11.70;99.90
18339;DHT22;9295;44.484;11.240;2023-10-19T05:58:06;11.70;99.90
18339;DHT22;9295;44.484;11.240;2023-10-19T06:00:35;11.70;99.90
18339;DHT22;9295;44.484;11.240;2023-10-19T06:03:04;11.70;99.90
18339;DHT22;9295;44.484;11.240;2023-10-19T06:05:34;11.70;99.90
18339;DHT22;9295;44.484;11.240;2023-10-19T06:08:03;11.70;99.90
18339;DHT22;9295;44.484;11.240;2023-10-19T06:10:32;11.70;99.90
18339;DHT22;9295;44.484;11.240;2023-10-19T06:13:00;11.70;99.90
18339;DHT22;9295;44.484;11.240;2023-10-19T06:15:29;11.70;99.90
18339;DHT22;9295;44.484;11.240;2023-10-19T06:17:59;11.70;99.90
18339;DHT22;9295;44.484;11.240;2023-10-19T06:20:28;11.70;99.90
18339;DHT22;9295;44.484;11.240;2023-10-19T06:22:58;11.70;99.90
18339;DHT22;9295;44.484;11.240;2023-10-19T06:25:32;11.70;99.90
18339;DHT22;9295;44.484;11.240;2023-10-19T06:28:02;11.80;99.90
18339;DHT22;9295;44.484;11.240;2023-10-19T06:30:31;11.70;99.90
18339;DHT22;9295;44.484;11.240;2023-10-19T06:33:00;11.80;99.90
18339;DHT22;9295;44.484;11.240;2023-10-19T06:35:31;11.70;99.90
18339;DHT22;9295;44.484;11.240;2023-10-19T06:38:01;11.80;99.90
18339;DHT22;9295;44.484;11.240;2023-10-19T06:40:34;11.80;99.90
18339;DHT22;9295;44.484;11.240;2023-10-19T06:43:03;11.80;99.90
18339;DHT22;9295;44.484;11.240;2023-10-19T06:45:32;11.80;99.90
18339;DHT22;9295;44.484;11.240;2023-10-19T06:48:01;11.80;99.90
18339;DHT22;9295;44.484;11.240;2023-10-19T06:50:31;11.80;99.90
18339;DHT22;9295;44.484;11.240;2023-10-19T06:53:01;11.90;99.90
18339;DHT22;9295;44.484;11.240;2023-10-19T06:55:32;11.90;99.90
18339;DHT22;9295;44.484;11.240;2023-10-19T06:58:01;11.90;99.90
18339;DHT22;9295;44.484;11.240;2023-10-19T07:00:30;11.90;99.90
18339;DHT22;9295;44.484;11.240;2023-10-19T07:02:58;11.90;99.90
18339;DHT22;9295;44.484;11.240;2023-10-19T07:05:29;11.90;99.90
18339;DHT22;9295;44.484;11.240;2023-10-19T07:07:58;11.90;99.90
18339;DHT22;9295;44.484;11.240;2023-10-19T07:10:30;11.90;99.90
18339;DHT22;9295;44.484;11.240;2023-10-19T07:12:59;11.90;99.90
18339;DHT22;9295;44.484;11.240;2023-10-19T07:15:28;12.00;99.90
18339;DHT22;9295;44.484;11.240;2023-10-19T07:17:57;12.00;99.90
18339;DHT22;9295;44.484;11.240;2023-10-19T07:20:26;12.10;99.90
18339;DHT22;9295;44.484;11.240;2023-10-19T07:22:57;12.10;99.90
18339;DHT22;9295;44.484;11.240;2023-10-19T07:25:27;12.10;99.90
18339;DHT22;9295;44.484;11.240;2023-10-19T07:27:58;12.10;99.90
18339;DHT22;9295;44.484;11.240;2023-10-19T07:30:27;12.20;99.90
18339;DHT22;9295;44.484;11.240;2023-10-19T07:32:57;12.20;99.90
18339;DHT22;9295;44.484;11.240;2023-10-19T07:35:27;12.20;99.90
18339;DHT22;9295;44.484;11.240;2023-10-19T07:38:01;12.30;99.90
18339;DHT22;9295;44.484;11.240;2023-10-19T07:40:31;12.40;99.90
18339;DHT22;9295;44.484;11.240;2023-10-19T07:43:02;12.50;99.90
18339;DHT22;9295;44.484;11.240;2023-10-19T07:45:32;12.50;99.90
18339;DHT22;9295;44.484;11.240;2023-10-19T07:48:03;12.60;99.90
18339;DHT22;9295;44.484;11.240;2023-10-19T07:50:36;12.70;99.90
18339;DHT22;9295;44.484;11.240;2023-10-19T07:53:05;12.60;99.90
18339;DHT22;9295;44.484;11.240;2023-10-19T07:55:33;12.70;99.90
18339;DHT22;9295;44.484;11.240;2023-10-19T07:58:04;12.80;99.90
18339;DHT22;9295;44.484;11.240;2023-10-19T08:00:33;12.80;99.90
18339;DHT22;9295;44.484;11.240;2023-10-19T08:03:03;12.80;99.90
18339;DHT22;9295;44.484;11.240;2023-10-19T08:05:33;12.90;99.90
18339;DHT22;9295;44.484;11.240;2023-10-19T08:08:02;13.00;99.90
18339;DHT22;9295;44.484;11.240;2023-10-19T08:10:32;13.00;99.90
18339;DHT22;9295;44.484;11.240;2023-10-19T08:13:03;13.10;99.90
18339;DHT22;9295;44.484;11.240;2023-10-19T08:15:32;13.10;99.90
18339;DHT22;9295;44.484;11.240;2023-10-19T08:18:00;13.10;99.90
18339;DHT22;9295;44.484;11.240;2023-10-19T08:20:29;13.10;99.90
18339;DHT22;9295;44.484;11.240;2023-10-19T08:23:00;13.10;99.90
18339;DHT22;9295;44.484;11.240;2023-10-19T08:25:30;13.10;99.90
18339;DHT22;9295;44.484;11.240;2023-10-19T08:28:20;13.10;99.90
18339;DHT22;9295;44.484;11.240;2023-10-19T08:30:49;13.10;99.90
18339;DHT22;9295;44.484;11.240;2023-10-19T08:33:25;13.20;99.90
18339;DHT22;9295;44.484;11.240;2023-10-19T08:35:54;13.20;99.90
18339;DHT22;9295;44.484;11.240;2023-10-19T08:38:24;13.10;99.90
18339;DHT22;9295;44.484;11.240;2023-10-19T08:40:53;13.10;99.90
18339;DHT22;9295;44.484;11.240;2023-10-19T08:43:23;13.10;99.90
18339;DHT22;9295;44.484;11.240;2023-10-19T08:45:54;13.10;99.90
18339;DHT22;9295;44.484;11.240;2023-10-19T08:48:23;13.10;99.90
18339;DHT22;9295;44.484;11.240;2023-10-19T08:50:52;13.10;99.90
18339;DHT22;9295;44.484;11.240;2023-10-19T08:53:24;13.10;99.90
18339;DHT22;9295;44.484;11.240;2023-10-19T08:55:53;13.00;99.90
18339;DHT22;9295;44.484;11.240;2023-10-19T08:58:24;13.00;99.90
18339;DHT22;9295;44.484;11.240;2023-10-19T09:00:54;13.10;99.90
18339;DHT22;9295;44.484;11.240;2023-10-19T09:03:24;13.10;99.90
18339;DHT22;9295;44.484;11.240;2023-10-19T09:05:54;13.10;99.90
18339;DHT22;9295;44.484;11.240;2023-10-19T09:08:24;13.10;99.90
18339;DHT22;9295;44.484;11.240;2023-10-19T09:10:52;13.10;99.90
18339;DHT22;9295;44.484;11.240;2023-10-19T09:13:24;13.10;99.90
18339;DHT22;9295;44.484;11.240;2023-10-19T09:15:53;13.10;99.90
18339;DHT22;9295;44.484;11.240;2023-10-19T09:18:25;13.00;99.90
18339;DHT22;9295;44.484;11.240;2023-10-19T09:20:56;13.00;99.90
18339;DHT22;9295;44.484;11.240;2023-10-19T09:23:35;13.00;99.90
18339;DHT22;9295;44.484;11.240;2023-10-19T09:26:04;13.00;99.90
18339;DHT22;9295;44.484;11.240;2023-10-19T09:28:37;13.00;99.90
18339;DHT22;9295;44.484;11.240;2023-10-19T09:31:06;13.10;99.90
18339;DHT22;9295;44.484;11.240;2023-10-19T09:33:40;13.10;99.90
18339;DHT22;9295;44.484;11.240;2023-10-19T09:36:11;13.10;99.90
18339;DHT22;9295;44.484;11.240;2023-10-19T09:38:45;13.10;99.90
18339;DHT22;9295;44.484;11.240;2023-10-19T09:41:18;13.10;99.90
18339;DHT22;9295;44.484;11.240;2023-10-19T09:43:49;13.10;99.90
18339;DHT22;9295;44.484;11.240;2023-10-19T09:46:21;13.10;99.90
18339;DHT22;9295;44.484;11.240;2023-10-19T09:48:51;13.10;99.90
18339;DHT22;9295;44.484;11.240;2023-10-19T09:51:20;13.20;99.90
18339;DHT22;9295;44.484;11.240;2023-10-19T09:53:57;13.20;99.90
18339;DHT22;9295;44.484;11.240;2023-10-19T09:56:30;13.30;99.90
18339;DHT22;9295;44.484;11.240;2023-10-19T09:59:06;13.30;99.90
18339;DHT22;9295;44.484;11.240;2023-10-19T10:02:08;13.30;99.90
18339;DHT22;9295;44.484;11.240;2023-10-19T10:04:41;13.20;99.90
18339;DHT22;9295;44.484;11.240;2023-10-19T10:07:13;13.30;99.90
18339;DHT22;9295;44.484;11.240;2023-10-19T10:10:03;13.30;99.90
18339;DHT22;9295;44.484;11.240;2023-10-19T10:12:32;13.40;99.90
18339;DHT22;9295;44.484;11.240;2023-10-19T10:15:05;13.60;99.90
18339;DHT22;9295;44.484;11.240;2023-10-19T10:17:36;13.70;99.90
18339;DHT22;9295;44.484;11.240;2023-10-19T10:20:29;13.90;99.90
18339;DHT22;9295;44.484;11.240;2023-10-19T10:23:18;14.00;99.90
18339;DHT22;9295;44.484;11.240;2023-10-19T10:25:49;14.00;99.90
18339;DHT22;9295;44.484;11.240;2023-10-19T10:28:21;14.00;99.90
18339;DHT22;9295;44.484;11.240;2023-10-19T10:31:15;14.00;99.90
18339;DHT22;9295;44.484;11.240;2023-10-19T10:33:49;14.20;99.90
18339;DHT22;9295;44.484;11.240;2023-10-19T10:36:19;14.40;99.90
18339;DHT22;9295;44.484;11.240;2023-10-19T10:38:48;14.40;99.90
18339;DHT22;9295;44.484;11.240;2023-10-19T10:41:21;14.60;99.90
18339;DHT22;9295;44.484;11.240;2023-10-19T10:43:51;14.60;99.90
18339;DHT22;9295;44.484;11.240;2023-10-19T10:46:23;14.70;99.90
18339;DHT22;9295;44.484;11.240;2023-10-19T10:48:52;14.70;99.90
18339;DHT22;9295;44.484;11.240;2023-10-19T10:51:22;14.70;99.90
18339;DHT22;9295;44.484;11.240;2023-10-19T10:53:52;14.70;99.90
18339;DHT22;9295;44.484;11.240;2023-10-19T10:56:22;14.60;99.90
18339;DHT22;9295;44.484;11.240;2023-10-19T10:58:51;14.60;99.90
18339;DHT22;9295;44.484;11.240;2023-10-19T11:01:30;14.50;99.90
18339;DHT22;9295;44.484;11.240;2023-10-19T11:04:07;14.60;99.90
18339;DHT22;9295;44.484;11.240;2023-10-19T11:06:49;14.70;99.90
18339;DHT22;9295;44.484;11.240;2023-10-19T11:09:18;14.60;99.90
18339;DHT22;9295;44.484;11.240;2023-10-19T11:11:47;14.50;99.90
18339;DHT22;9295;44.484;11.240;2023-10-19T11:14:19;14.40;99.90
18339;DHT22;9295;44.484;11.240;2023-10-19T11:16:52;14.50;99.90
18339;DHT22;9295;44.484;11.240;2023-10-19T11:19:21;14.50;99.90
18339;DHT22;9295;44.484;11.240;2023-10-19T11:22:09;14.50;99.90
18339;DHT22;9295;44.484;11.240;2023-10-19T11:24:38;14.50;99.90
18339;DHT22;9295;44.484;11.240;2023-10-19T11:27:08;14.40;99.90
18339;DHT22;9295;44.484;11.240;2023-10-19T11:29:39;14.40;99.90
18339;DHT22;9295;44.484;11.240;2023-10-19T11:32:09;14.40;99.90
18339;DHT22;9295;44.484;11.240;2023-10-19T11:34:37;14.30;99.90
18339;DHT22;9295;44.484;11.240;2023-10-19T11:37:07;14.30;99.90
18339;DHT22;9295;44.484;11.240;2023-10-19T11:39:38;14.20;99.90
18339;DHT22;9295;44.484;11.240;2023-10-19T11:42:09;14.20;99.90
18339;DHT22;9295;44.484;11.240;2023-10-19T11:44:39;14.20;99.90
18339;DHT22;9295;44.484;11.240;2023-10-19T11:47:09;14.20;99.90
18339;DHT22;9295;44.484;11.240;2023-10-19T11:49:40;14.20;99.90
18339;DHT22;9295;44.484;11.240;2023-10-19T11:52:10;14.20;99.90
18339;DHT22;9295;44.484;11.240;2023-10-19T11:54:43;14.20;99.90
18339;DHT22;9295;44.484;11.240;2023-10-19T11:57:11;14.10;99.90
18339;DHT22;9295;44.484;11.240;2023-10-19T11:59:40;14.20;99.90
18339;DHT22;9295;44.484;11.240;2023-10-19T12:02:10;14.20;99.90
18339;DHT22;9295;44.484;11.240;2023-10-19T12:04:39;14.20;99.90
18339;DHT22;9295;44.484;11.240;2023-10-19T12:07:08;14.20;99.90
18339;DHT22;9295;44.484;11.240;2023-10-19T12:09:36;14.30;99.90
18339;DHT22;9295;44.484;11.240;2023-10-19T12:12:08;14.20;99.90
18339;DHT22;9295;44.484;11.240;2023-10-19T12:14:37;14.20;99.90
18339;DHT22;9295;44.484;11.240;2023-10-19T12:17:06;14.10;99.90
18339;DHT22;9295;44.484;11.240;2023-10-19T12:19:36;14.00;99.90
18339;DHT22;9295;44.484;11.240;2023-10-19T12:22:05;13.90;99.90
18339;DHT22;9295;44.484;11.240;2023-10-19T12:24:35;13.90;99.90
18339;DHT22;9295;44.484;11.240;2023-10-19T12:27:04;13.90;99.90
18339;DHT22;9295;44.484;11.240;2023-10-19T12:29:33;13.90;99.90
18339;DHT22;9295;44.484;11.240;2023-10-19T12:32:02;14.00;99.90
18339;DHT22;9295;44.484;11.240;2023-10-19T12:34:31;14.00;99.90
18339;DHT22;9295;44.484;11.240;2023-10-19T12:37:02;14.00;99.90
18339;DHT22;9295;44.484;11.240;2023-10-19T12:39:31;14.00;99.90
18339;DHT22;9295;44.484;11.240;2023-10-19T12:42:10;14.10;99.90
18339;DHT22;9295;44.484;11.240;2023-10-19T12:44:39;14.10;99.90
18339;DHT22;9295;44.484;11.240;2023-10-19T12:47:10;14.10;99.90
18339;DHT22;9295;44.484;11.240;2023-10-19T12:49:41;14.00;99.90
18339;DHT22;9295;44.484;11.240;2023-10-19T12:52:13;14.00;99.90
18339;DHT22;9295;44.484;11.240;2023-10-19T12:54:42;14.00;99.90
18339;DHT22;9295;44.484;11.240;2023-10-19T12:57:15;14.00;99.90
18339;DHT22;9295;44.484;11.240;2023-10-19T12:59:45;14.00;99.90
18339;DHT22;9295;44.484;11.240;2023-10-19T13:02:13;14.00;99.90
18339;DHT22;9295;44.484;11.240;2023-10-19T13:04:42;14.00;99.90
18339;DHT22;9295;44.484;11.240;2023-10-19T13:07:15;14.00;99.90
18339;DHT22;9295;44.484;11.240;2023-10-19T13:09:44;14.00;99.90
18339;DHT22;9295;44.484;11.240;2023-10-19T13:12:12;14.00;99.90
18339;DHT22;9295;44.484;11.240;2023-10-19T13:14:41;13.90;99.90
18339;DHT22;9295;44.484;11.240;2023-10-19T13:17:11;13.80;99.90
18339;DHT22;9295;44.484;11.240;2023-10-19T13:19:40;13.80;99.90
18339;DHT22;9295;44.484;11.240;2023-10-19T13:22:09;13.80;99.90
18339;DHT22;9295;44.484;11.240;2023-10-19T13:24:40;13.70;99.90
18339;DHT22;9295;44.484;11.240;2023-10-19T13:27:09;13.70;99.90
18339;DHT22;9295;44.484;11.240;2023-10-19T13:29:37;13.60;99.90
18339;DHT22;9295;44.484;11.240;2023-10-19T13:32:09;13.60;99.90
18339;DHT22;9295;44.484;11.240;2023-10-19T13:34:38;13.60;99.90
18339;DHT22;9295;44.484;11.240;2023-10-19T13:37:07;13.60;99.90
18339;DHT22;9295;44.484;11.240;2023-10-19T13:39:36;13.60;99.90
18339;DHT22;9295;44.484;11.240;2023-10-19T13:42:08;13.70;99.90
18339;DHT22;9295;44.484;11.240;2023-10-19T13:44:56;13.70;99.90
18339;DHT22;9295;44.484;11.240;2023-10-19T13:47:24;13.70;99.90
18339;DHT22;9295;44.484;11.240;2023-10-19T13:49:53;13.80;99.90
18339;DHT22;9295;44.484;11.240;2023-10-19T13:52:22;13.80;99.90
18339;DHT22;9295;44.484;11.240;2023-10-19T13:54:52;13.80;99.90
18339;DHT22;9295;44.484;11.240;2023-10-19T13:57:22;13.80;99.90
18339;DHT22;9295;44.484;11.240;2023-10-19T13:59:51;13.80;99.90
18339;DHT22;9295;44.484;11.240;2023-10-19T14:02:20;13.90;99.90
18339;DHT22;9295;44.484;11.240;2023-10-19T14:04:49;13.90;99.90
18339;DHT22;9295;44.484;11.240;2023-10-19T14:07:19;13.90;99.90
18339;DHT22;9295;44.484;11.240;2023-10-19T14:09:47;14.00;99.90
18339;DHT22;9295;44.484;11.240;2023-10-19T14:12:16;14.10;99.90
18339;DHT22;9295;44.484;11.240;2023-10-19T14:14:46;14.10;99.90
18339;DHT22;9295;44.484;11.240;2023-10-19T14:17:14;14.10;99.90
18339;DHT22;9295;44.484;11.240;2023-10-19T14:19:43;14.20;99.90
18339;DHT22;9295;44.484;11.240;2023-10-19T14:22:12;14.20;99.90
18339;DHT22;9295;44.484;11.240;2023-10-19T14:24:43;14.30;99.90
18339;DHT22;9295;44.484;11.240;2023-10-19T14:27:12;14.30;99.90
18339;DHT22;9295;44.484;11.240;2023-10-19T14:29:40;14.30;99.90
18339;DHT22;9295;44.484;11.240;2023-10-19T14:32:10;14.30;99.90
18339;DHT22;9295;44.484;11.240;2023-10-19T14:34:39;14.30;99.90
18339;DHT22;9295;44.484;11.240;2023-10-19T14:37:09;14.30;99.90
18339;DHT22;9295;44.484;11.240;2023-10-19T14:39:37;14.30;99.90
18339;DHT22;9295;44.484;11.240;2023-10-19T14:42:06;14.30;99.90
18339;DHT22;9295;44.484;11.240;2023-10-19T14:44:35;14.30;99.90
18339;DHT22;9295;44.484;11.240;2023-10-19T14:47:04;14.20;99.90
18339;DHT22;9295;44.484;11.240;2023-10-19T14:49:35;14.20;99.90
18339;DHT22;9295;44.484;11.240;2023-10-19T14:52:03;14.20;99.90
18339;DHT22;9295;44.484;11.240;2023-10-19T14:54:32;14.20;99.90
18339;DHT22;9295;44.484;11.240;2023-10-19T14:57:01;14.20;99.90
18339;DHT22;9295;44.484;11.240;2023-10-19T14:59:29;14.10;99.90
18339;DHT22;9295;44.484;11.240;2023-10-19T15:02:01;14.20;99.90
18339;DHT22;9295;44.484;11.240;2023-10-19T15:04:35;14.10;99.90
18339;DHT22;9295;44.484;11.240;2023-10-19T15:07:05;14.10;99.90
18339;DHT22;9295;44.484;11.240;2023-10-19T15:09:35;14.10;99.90
18339;DHT22;9295;44.484;11.240;2023-10-19T15:12:04;14.10;99.90
18339;DHT22;9295;44.484;11.240;2023-10-19T15:14:34;14.10;99.90
18339;DHT22;9295;44.484;11.240;2023-10-19T15:17:02;14.00;99.90
18339;DHT22;9295;44.484;11.240;2023-10-19T15:19:31;14.00;99.90
18339;DHT22;9295;44.484;11.240;2023-10-19T15:22:01;14.00;99.90
18339;DHT22;9295;44.484;11.240;2023-10-19T15:24:30;14.00;99.90
18339;DHT22;9295;44.484;11.240;2023-10-19T15:26:58;14.00;99.90
18339;DHT22;9295;44.484;11.240;2023-10-19T15:29:27;14.00;99.90
18339;DHT22;9295;44.484;11.240;2023-10-19T15:31:56;14.00;99.90
18339;DHT22;9295;44.484;11.240;2023-10-19T15:34:24;14.00;99.90
18339;DHT22;9295;44.484;11.240;2023-10-19T15:36:53;14.00;99.90
18339;DHT22;9295;44.484;11.240;2023-10-19T15:39:23;14.00;99.90
18339;DHT22;9295;44.484;11.240;2023-10-19T15:41:52;14.00;99.90
18339;DHT22;9295;44.484;11.240;2023-10-19T15:44:20;13.90;99.90
18339;DHT22;9295;44.484;11.240;2023-10-19T15:46:49;13.90;99.90
18339;DHT22;9295;44.484;11.240;2023-10-19T15:49:19;13.90;99.90
18339;DHT22;9295;44.484;11.240;2023-10-19T15:52:07;13.90;99.90
18339;DHT22;9295;44.484;11.240;2023-10-19T15:54:37;13.90;99.90